sensor_id;sensor_type;location;lat;lon;timestamp;P1;durP1;ratioP1;P2;durP2;ratioP2
36441;SDS011;64346;50.820;16.274;2023-04-06T00:01:34;59.22;;;27.95;;
36441;SDS011;64346;50.820;16.274;2023-04-06T00:04:01;60.47;;;27.65;;
36441;SDS011;64346;50.820;16.274;2023-04-06T00:06:28;54.35;;;26.92;;
36441;SDS011;64346;50.820;16.274;2023-04-06T00:08:58;58.67;;;27.58;;
36441;SDS011;64346;50.820;16.274;2023-04-06T00:11:26;56.58;;;29.13;;
36441;SDS011;64346;50.820;16.274;2023-04-06T00:13:54;59.97;;;28.77;;
36441;SDS011;64346;50.820;16.274;2023-04-06T00:16:21;56.35;;;25.90;;
36441;SDS011;64346;50.820;16.274;2023-04-06T00:18:50;51.00;;;25.75;;
36441;SDS011;64346;50.820;16.274;2023-04-06T00:21:17;54.28;;;24.85;;
36441;SDS011;64346;50.820;16.274;2023-04-06T00:23:45;53.53;;;25.20;;
36441;SDS011;64346;50.820;16.274;2023-04-06T00:26:14;57.83;;;27.35;;
36441;SDS011;64346;50.820;16.274;2023-04-06T00:28:42;52.67;;;27.73;;
36441;SDS011;64346;50.820;16.274;2023-04-06T00:31:11;51.35;;;26.20;;
36441;SDS011;64346;50.820;16.274;2023-04-06T00:33:38;48.42;;;25.67;;
36441;SDS011;64346;50.820;16.274;2023-04-06T00:36:05;44.17;;;22.83;;
36441;SDS011;64346;50.820;16.274;2023-04-06T00:38:33;46.13;;;23.85;;
36441;SDS011;64346;50.820;16.274;2023-04-06T00:41:00;43.15;;;23.65;;
36441;SDS011;64346;50.820;16.274;2023-04-06T00:43:31;44.38;;;23.88;;
36441;SDS011;64346;50.820;16.274;2023-04-06T00:45:58;48.05;;;22.13;;
36441;SDS011;64346;50.820;16.274;2023-04-06T00:48:30;44.03;;;23.15;;
36441;SDS011;64346;50.820;16.274;2023-04-06T00:50:57;42.28;;;22.35;;
36441;SDS011;64346;50.820;16.274;2023-04-06T00:53:27;47.30;;;25.92;;
36441;SDS011;64346;50.820;16.274;2023-04-06T00:55:54;44.47;;;24.02;;
36441;SDS011;64346;50.820;16.274;2023-04-06T00:58:21;42.80;;;24.23;;
36441;SDS011;64346;50.820;16.274;2023-04-06T01:00:49;48.30;;;24.80;;
36441;SDS011;64346;50.820;16.274;2023-04-06T01:03:17;45.13;;;24.70;;
36441;SDS011;64346;50.820;16.274;2023-04-06T01:05:44;48.15;;;26.00;;
36441;SDS011;64346;50.820;16.274;2023-04-06T01:08:12;48.35;;;26.80;;
36441;SDS011;64346;50.820;16.274;2023-04-06T01:10:39;47.33;;;25.73;;
36441;SDS011;64346;50.820;16.274;2023-04-06T01:13:06;47.03;;;25.73;;
36441;SDS011;64346;50.820;16.274;2023-04-06T01:15:33;48.45;;;26.50;;
36441;SDS011;64346;50.820;16.274;2023-04-06T01:18:05;45.08;;;24.08;;
36441;SDS011;64346;50.820;16.274;2023-04-06T01:20:33;44.10;;;23.20;;
36441;SDS011;64346;50.820;16.274;2023-04-06T01:23:05;37.75;;;22.23;;
36441;SDS011;64346;50.820;16.274;2023-04-06T01:25:32;35.97;;;19.40;;
36441;SDS011;64346;50.820;16.274;2023-04-06T01:28:02;34.80;;;19.52;;
36441;SDS011;64346;50.820;16.274;2023-04-06T01:30:31;33.85;;;17.90;;
36441;SDS011;64346;50.820;16.274;2023-04-06T01:32:58;31.17;;;16.77;;
36441;SDS011;64346;50.820;16.274;2023-04-06T01:35:26;32.15;;;16.33;;
36441;SDS011;64346;50.820;16.274;2023-04-06T01:37:54;36.42;;;17.60;;
36441;SDS011;64346;50.820;16.274;2023-04-06T01:40:21;37.25;;;19.67;;
36441;SDS011;64346;50.820;16.274;2023-04-06T01:42:49;35.72;;;18.58;;
36441;SDS011;64346;50.820;16.274;2023-04-06T01:45:16;37.78;;;18.63;;
36441;SDS011;64346;50.820;16.274;2023-04-06T01:47:47;36.38;;;20.85;;
36441;SDS011;64346;50.820;16.274;2023-04-06T01:50:15;34.42;;;18.55;;
36441;SDS011;64346;50.820;16.274;2023-04-06T01:52:42;36.47;;;19.13;;
36441;SDS011;64346;50.820;16.274;2023-04-06T01:55:09;41.80;;;22.50;;
36441;SDS011;64346;50.820;16.274;2023-04-06T01:57:36;47.97;;;25.73;;
36441;SDS011;64346;50.820;16.274;2023-04-06T02:00:04;50.72;;;27.40;;
36441;SDS011;64346;50.820;16.274;2023-04-06T02:02:34;57.00;;;30.27;;
36441;SDS011;64346;50.820;16.274;2023-04-06T02:05:04;56.92;;;30.67;;
36441;SDS011;64346;50.820;16.274;2023-04-06T02:07:31;57.53;;;30.92;;
36441;SDS011;64346;50.820;16.274;2023-04-06T02:09:58;47.78;;;28.52;;
36441;SDS011;64346;50.820;16.274;2023-04-06T02:12:26;54.10;;;31.67;;
36441;SDS011;64346;50.820;16.274;2023-04-06T02:14:53;54.95;;;30.52;;
36441;SDS011;64346;50.820;16.274;2023-04-06T02:17:20;64.07;;;33.05;;
36441;SDS011;64346;50.820;16.274;2023-04-06T02:19:50;59.72;;;32.70;;
36441;SDS011;64346;50.820;16.274;2023-04-06T02:22:17;55.88;;;30.70;;
36441;SDS011;64346;50.820;16.274;2023-04-06T02:24:44;61.30;;;33.53;;
36441;SDS011;64346;50.820;16.274;2023-04-06T02:27:12;63.40;;;33.58;;
36441;SDS011;64346;50.820;16.274;2023-04-06T02:29:40;58.28;;;32.78;;
36441;SDS011;64346;50.820;16.274;2023-04-06T02:32:07;58.92;;;31.92;;
36441;SDS011;64346;50.820;16.274;2023-04-06T02:34:34;54.28;;;28.98;;
36441;SDS011;64346;50.820;16.274;2023-04-06T02:37:02;52.60;;;29.30;;
36441;SDS011;64346;50.820;16.274;2023-04-06T02:39:31;55.97;;;28.65;;
36441;SDS011;64346;50.820;16.274;2023-04-06T02:42:01;52.65;;;28.23;;
36441;SDS011;64346;50.820;16.274;2023-04-06T02:44:30;48.40;;;27.05;;
36441;SDS011;64346;50.820;16.274;2023-04-06T02:46:58;51.45;;;27.45;;
36441;SDS011;64346;50.820;16.274;2023-04-06T02:49:25;53.28;;;27.35;;
36441;SDS011;64346;50.820;16.274;2023-04-06T02:51:52;47.65;;;26.15;;
36441;SDS011;64346;50.820;16.274;2023-04-06T02:54:19;45.42;;;24.38;;
36441;SDS011;64346;50.820;16.274;2023-04-06T02:56:47;41.25;;;23.52;;
36441;SDS011;64346;50.820;16.274;2023-04-06T02:59:14;46.30;;;25.23;;
36441;SDS011;64346;50.820;16.274;2023-04-06T03:01:41;48.13;;;25.55;;
36441;SDS011;64346;50.820;16.274;2023-04-06T03:04:08;46.13;;;24.23;;
36441;SDS011;64346;50.820;16.274;2023-04-06T03:06:36;54.72;;;27.67;;
36441;SDS011;64346;50.820;16.274;2023-04-06T03:09:05;53.92;;;26.77;;
36441;SDS011;64346;50.820;16.274;2023-04-06T03:11:36;55.50;;;28.88;;
36441;SDS011;64346;50.820;16.274;2023-04-06T03:14:05;46.30;;;26.23;;
36441;SDS011;64346;50.820;16.274;2023-04-06T03:16:32;44.13;;;22.58;;
36441;SDS011;64346;50.820;16.274;2023-04-06T03:18:59;47.47;;;23.15;;
36441;SDS011;64346;50.820;16.274;2023-04-06T03:21:27;36.80;;;20.77;;
36441;SDS011;64346;50.820;16.274;2023-04-06T03:23:54;42.97;;;21.88;;
36441;SDS011;64346;50.820;16.274;2023-04-06T03:26:21;46.03;;;24.20;;
36441;SDS011;64346;50.820;16.274;2023-04-06T03:28:48;49.03;;;22.17;;
36441;SDS011;64346;50.820;16.274;2023-04-06T03:31:18;42.47;;;21.38;;
36441;SDS011;64346;50.820;16.274;2023-04-06T03:33:48;43.38;;;21.02;;
36441;SDS011;64346;50.820;16.274;2023-04-06T03:36:15;41.78;;;20.40;;
36441;SDS011;64346;50.820;16.274;2023-04-06T03:38:44;42.78;;;20.45;;
36441;SDS011;64346;50.820;16.274;2023-04-06T03:41:12;39.72;;;18.05;;
36441;SDS011;64346;50.820;16.274;2023-04-06T03:43:39;39.03;;;18.02;;
36441;SDS011;64346;50.820;16.274;2023-04-06T03:46:06;29.45;;;16.02;;
36441;SDS011;64346;50.820;16.274;2023-04-06T03:48:34;31.05;;;15.80;;
36441;SDS011;64346;50.820;16.274;2023-04-06T03:51:03;34.92;;;19.33;;
36441;SDS011;64346;50.820;16.274;2023-04-06T03:53:31;33.25;;;17.30;;
36441;SDS011;64346;50.820;16.274;2023-04-06T03:55:58;33.65;;;16.15;;
36441;SDS011;64346;50.820;16.274;2023-04-06T03:58:29;35.85;;;16.50;;
36441;SDS011;64346;50.820;16.274;2023-04-06T04:00:56;31.73;;;18.05;;
36441;SDS011;64346;50.820;16.274;2023-04-06T04:03:24;40.92;;;20.35;;
36441;SDS011;64346;50.820;16.274;2023-04-06T04:05:54;34.63;;;19.90;;
36441;SDS011;64346;50.820;16.274;2023-04-06T04:08:24;33.38;;;17.65;;
36441;SDS011;64346;50.820;16.274;2023-04-06T04:10:54;35.77;;;17.50;;
36441;SDS011;64346;50.820;16.274;2023-04-06T04:13:21;32.08;;;17.90;;
36441;SDS011;64346;50.820;16.274;2023-04-06T04:15:50;33.10;;;16.90;;
36441;SDS011;64346;50.820;16.274;2023-04-06T04:18:20;34.03;;;17.75;;
36441;SDS011;64346;50.820;16.274;2023-04-06T04:20:49;33.47;;;17.92;;
36441;SDS011;64346;50.820;16.274;2023-04-06T04:23:17;33.22;;;16.05;;
36441;SDS011;64346;50.820;16.274;2023-04-06T04:25:44;30.50;;;15.88;;
36441;SDS011;64346;50.820;16.274;2023-04-06T04:28:11;29.27;;;16.15;;
36441;SDS011;64346;50.820;16.274;2023-04-06T04:30:38;33.78;;;15.80;;
36441;SDS011;64346;50.820;16.274;2023-04-06T04:33:05;37.55;;;17.45;;
36441;SDS011;64346;50.820;16.274;2023-04-06T04:35:33;30.50;;;16.95;;
36441;SDS011;64346;50.820;16.274;2023-04-06T04:38:00;35.53;;;17.42;;
36441;SDS011;64346;50.820;16.274;2023-04-06T04:40:27;46.28;;;19.23;;
36441;SDS011;64346;50.820;16.274;2023-04-06T04:42:54;31.73;;;18.13;;
36441;SDS011;64346;50.820;16.274;2023-04-06T04:45:24;30.42;;;17.42;;
36441;SDS011;64346;50.820;16.274;2023-04-06T04:47:51;35.97;;;18.70;;
36441;SDS011;64346;50.820;16.274;2023-04-06T04:50:19;31.45;;;18.33;;
36441;SDS011;64346;50.820;16.274;2023-04-06T04:52:46;33.28;;;17.00;;
36441;SDS011;64346;50.820;16.274;2023-04-06T04:55:15;30.42;;;16.23;;
36441;SDS011;64346;50.820;16.274;2023-04-06T04:57:45;36.05;;;17.50;;
36441;SDS011;64346;50.820;16.274;2023-04-06T05:00:15;32.17;;;17.08;;
36441;SDS011;64346;50.820;16.274;2023-04-06T05:02:44;36.20;;;17.45;;
36441;SDS011;64346;50.820;16.274;2023-04-06T05:05:12;41.95;;;17.83;;
36441;SDS011;64346;50.820;16.274;2023-04-06T05:07:39;38.80;;;18.27;;
36441;SDS011;64346;50.820;16.274;2023-04-06T05:10:06;39.58;;;18.30;;
36441;SDS011;64346;50.820;16.274;2023-04-06T05:12:34;37.67;;;19.40;;
36441;SDS011;64346;50.820;16.274;2023-04-06T05:15:01;40.72;;;21.17;;
36441;SDS011;64346;50.820;16.274;2023-04-06T05:17:29;42.25;;;20.08;;
36441;SDS011;64346;50.820;16.274;2023-04-06T05:19:58;40.03;;;21.25;;
36441;SDS011;64346;50.820;16.274;2023-04-06T05:22:26;47.58;;;24.02;;
36441;SDS011;64346;50.820;16.274;2023-04-06T05:24:53;42.63;;;23.55;;
36441;SDS011;64346;50.820;16.274;2023-04-06T05:27:21;46.08;;;23.58;;
36441;SDS011;64346;50.820;16.274;2023-04-06T05:29:48;46.88;;;24.63;;
36441;SDS011;64346;50.820;16.274;2023-04-06T05:32:16;41.85;;;25.63;;
36441;SDS011;64346;50.820;16.274;2023-04-06T05:34:43;43.25;;;25.35;;
36441;SDS011;64346;50.820;16.274;2023-04-06T05:37:10;42.25;;;24.30;;
36441;SDS011;64346;50.820;16.274;2023-04-06T05:39:37;43.25;;;25.63;;
36441;SDS011;64346;50.820;16.274;2023-04-06T05:42:05;50.08;;;30.88;;
36441;SDS011;64346;50.820;16.274;2023-04-06T05:44:32;46.40;;;26.33;;
36441;SDS011;64346;50.820;16.274;2023-04-06T05:47:05;43.13;;;26.63;;
36441;SDS011;64346;50.820;16.274;2023-04-06T05:49:32;44.22;;;25.15;;
36441;SDS011;64346;50.820;16.274;2023-04-06T05:52:02;44.90;;;26.85;;
36441;SDS011;64346;50.820;16.274;2023-04-06T05:54:31;42.05;;;26.38;;
36441;SDS011;64346;50.820;16.274;2023-04-06T05:57:01;43.55;;;26.20;;
36441;SDS011;64346;50.820;16.274;2023-04-06T05:59:31;40.47;;;25.23;;
36441;SDS011;64346;50.820;16.274;2023-04-06T06:02:01;40.45;;;25.15;;
36441;SDS011;64346;50.820;16.274;2023-04-06T06:04:33;39.90;;;24.27;;
36441;SDS011;64346;50.820;16.274;2023-04-06T06:07:00;37.45;;;23.98;;
36441;SDS011;64346;50.820;16.274;2023-04-06T06:09:29;38.97;;;22.98;;
36441;SDS011;64346;50.820;16.274;2023-04-06T06:11:59;37.55;;;22.77;;
36441;SDS011;64346;50.820;16.274;2023-04-06T06:14:27;34.05;;;22.20;;
36441;SDS011;64346;50.820;16.274;2023-04-06T06:16:54;31.85;;;20.15;;
36441;SDS011;64346;50.820;16.274;2023-04-06T06:19:21;29.67;;;18.90;;
36441;SDS011;64346;50.820;16.274;2023-04-06T06:21:48;31.02;;;17.63;;
36441;SDS011;64346;50.820;16.274;2023-04-06T06:24:16;22.45;;;15.05;;
36441;SDS011;64346;50.820;16.274;2023-04-06T06:26:43;25.98;;;14.15;;
36441;SDS011;64346;50.820;16.274;2023-04-06T06:29:13;17.77;;;10.90;;
36441;SDS011;64346;50.820;16.274;2023-04-06T06:31:40;14.48;;;9.02;;
36441;SDS011;64346;50.820;16.274;2023-04-06T06:34:07;14.93;;;7.60;;
36441;SDS011;64346;50.820;16.274;2023-04-06T06:36:37;15.27;;;6.63;;
36441;SDS011;64346;50.820;16.274;2023-04-06T06:39:04;10.65;;;5.93;;
36441;SDS011;64346;50.820;16.274;2023-04-06T06:41:32;11.55;;;6.00;;
36441;SDS011;64346;50.820;16.274;2023-04-06T06:44:02;10.73;;;5.07;;
36441;SDS011;64346;50.820;16.274;2023-04-06T06:46:29;11.10;;;5.30;;
36441;SDS011;64346;50.820;16.274;2023-04-06T06:48:58;11.50;;;5.75;;
36441;SDS011;64346;50.820;16.274;2023-04-06T06:51:26;36.63;;;30.05;;
36441;SDS011;64346;50.820;16.274;2023-04-06T06:53:56;12.05;;;6.63;;
36441;SDS011;64346;50.820;16.274;2023-04-06T06:56:23;11.25;;;6.47;;
36441;SDS011;64346;50.820;16.274;2023-04-06T06:58:53;12.48;;;7.35;;
36441;SDS011;64346;50.820;16.274;2023-04-06T07:01:20;12.60;;;7.70;;
36441;SDS011;64346;50.820;16.274;2023-04-06T07:03:48;12.20;;;6.63;;
36441;SDS011;64346;50.820;16.274;2023-04-06T07:06:15;12.48;;;7.07;;
36441;SDS011;64346;50.820;16.274;2023-04-06T07:08:42;12.10;;;7.45;;
36441;SDS011;64346;50.820;16.274;2023-04-06T07:11:14;13.13;;;8.27;;
36441;SDS011;64346;50.820;16.274;2023-04-06T07:13:42;11.10;;;6.75;;
36441;SDS011;64346;50.820;16.274;2023-04-06T07:16:09;12.55;;;7.78;;
36441;SDS011;64346;50.820;16.274;2023-04-06T07:18:36;12.40;;;8.00;;
36441;SDS011;64346;50.820;16.274;2023-04-06T07:21:06;12.45;;;7.93;;
36441;SDS011;64346;50.820;16.274;2023-04-06T07:23:33;12.43;;;7.75;;
36441;SDS011;64346;50.820;16.274;2023-04-06T07:26:00;12.75;;;8.48;;
36441;SDS011;64346;50.820;16.274;2023-04-06T07:28:28;12.27;;;8.23;;
36441;SDS011;64346;50.820;16.274;2023-04-06T07:30:57;12.07;;;8.45;;
36441;SDS011;64346;50.820;16.274;2023-04-06T07:33:24;14.52;;;8.30;;
36441;SDS011;64346;50.820;16.274;2023-04-06T07:35:51;13.23;;;8.65;;
36441;SDS011;64346;50.820;16.274;2023-04-06T07:38:21;12.18;;;8.25;;
36441;SDS011;64346;50.820;16.274;2023-04-06T07:40:48;14.32;;;9.25;;
36441;SDS011;64346;50.820;16.274;2023-04-06T07:43:16;13.65;;;9.13;;
36441;SDS011;64346;50.820;16.274;2023-04-06T07:45:43;11.30;;;8.45;;
36441;SDS011;64346;50.820;16.274;2023-04-06T07:48:15;12.73;;;8.40;;
36441;SDS011;64346;50.820;16.274;2023-04-06T07:50:42;15.50;;;9.30;;
36441;SDS011;64346;50.820;16.274;2023-04-06T07:53:10;13.43;;;9.75;;
36441;SDS011;64346;50.820;16.274;2023-04-06T07:55:37;13.27;;;8.68;;
36441;SDS011;64346;50.820;16.274;2023-04-06T07:58:04;12.52;;;8.77;;
36441;SDS011;64346;50.820;16.274;2023-04-06T08:00:31;13.50;;;9.85;;
36441;SDS011;64346;50.820;16.274;2023-04-06T08:02:59;12.93;;;9.27;;
36441;SDS011;64346;50.820;16.274;2023-04-06T08:05:26;12.88;;;9.32;;
36441;SDS011;64346;50.820;16.274;2023-04-06T08:07:53;13.05;;;8.98;;
36441;SDS011;64346;50.820;16.274;2023-04-06T08:10:20;14.68;;;9.45;;
36441;SDS011;64346;50.820;16.274;2023-04-06T08:12:48;13.65;;;9.40;;
36441;SDS011;64346;50.820;16.274;2023-04-06T08:15:15;12.57;;;9.20;;
36441;SDS011;64346;50.820;16.274;2023-04-06T08:17:44;13.40;;;9.32;;
36441;SDS011;64346;50.820;16.274;2023-04-06T08:20:14;13.70;;;8.88;;
36441;SDS011;64346;50.820;16.274;2023-04-06T08:22:41;14.13;;;9.45;;
36441;SDS011;64346;50.820;16.274;2023-04-06T08:25:13;14.55;;;9.80;;
36441;SDS011;64346;50.820;16.274;2023-04-06T08:27:40;12.80;;;8.73;;
36441;SDS011;64346;50.820;16.274;2023-04-06T08:30:07;12.65;;;8.05;;
36441;SDS011;64346;50.820;16.274;2023-04-06T08:32:35;12.85;;;7.97;;
36441;SDS011;64346;50.820;16.274;2023-04-06T08:35:02;11.27;;;8.05;;
36441;SDS011;64346;50.820;16.274;2023-04-06T08:37:30;10.27;;;7.13;;
36441;SDS011;64346;50.820;16.274;2023-04-06T08:39:57;12.18;;;7.97;;
36441;SDS011;64346;50.820;16.274;2023-04-06T08:42:28;10.80;;;7.68;;
36441;SDS011;64346;50.820;16.274;2023-04-06T08:44:59;11.32;;;7.30;;
36441;SDS011;64346;50.820;16.274;2023-04-06T08:47:27;11.60;;;7.10;;
36441;SDS011;64346;50.820;16.274;2023-04-06T08:49:54;12.32;;;6.95;;
36441;SDS011;64346;50.820;16.274;2023-04-06T08:52:23;10.35;;;6.22;;
36441;SDS011;64346;50.820;16.274;2023-04-06T08:54:53;11.65;;;6.85;;
36441;SDS011;64346;50.820;16.274;2023-04-06T08:57:20;10.75;;;7.45;;
36441;SDS011;64346;50.820;16.274;2023-04-06T08:59:47;14.93;;;11.52;;
36441;SDS011;64346;50.820;16.274;2023-04-06T09:02:18;12.10;;;7.72;;
36441;SDS011;64346;50.820;16.274;2023-04-06T09:04:52;13.82;;;9.68;;
36441;SDS011;64346;50.820;16.274;2023-04-06T09:07:21;12.30;;;7.78;;
36441;SDS011;64346;50.820;16.274;2023-04-06T09:09:48;13.52;;;8.07;;
36441;SDS011;64346;50.820;16.274;2023-04-06T09:12:27;11.27;;;7.53;;
36441;SDS011;64346;50.820;16.274;2023-04-06T09:14:56;10.98;;;7.65;;
36441;SDS011;64346;50.820;16.274;2023-04-06T09:17:26;12.32;;;7.97;;
36441;SDS011;64346;50.820;16.274;2023-04-06T09:19:57;12.45;;;7.95;;
36441;SDS011;64346;50.820;16.274;2023-04-06T09:22:34;13.38;;;9.75;;
36441;SDS011;64346;50.820;16.274;2023-04-06T09:25:02;12.57;;;9.07;;
36441;SDS011;64346;50.820;16.274;2023-04-06T09:27:31;11.75;;;8.10;;
36441;SDS011;64346;50.820;16.274;2023-04-06T09:30:05;15.15;;;9.40;;
36441;SDS011;64346;50.820;16.274;2023-04-06T09:35:17;13.73;;;8.60;;
36441;SDS011;64346;50.820;16.274;2023-04-06T09:37:49;13.60;;;8.02;;
36441;SDS011;64346;50.820;16.274;2023-04-06T09:40:21;12.15;;;8.80;;
36441;SDS011;64346;50.820;16.274;2023-04-06T09:45:19;13.38;;;8.30;;
36441;SDS011;64346;50.820;16.274;2023-04-06T09:47:47;12.18;;;8.80;;
36441;SDS011;64346;50.820;16.274;2023-04-06T09:50:14;14.30;;;7.43;;
36441;SDS011;64346;50.820;16.274;2023-04-06T09:52:50;11.73;;;7.90;;
36441;SDS011;64346;50.820;16.274;2023-04-06T09:55:23;10.85;;;7.25;;
36441;SDS011;64346;50.820;16.274;2023-04-06T09:57:57;12.43;;;8.02;;
36441;SDS011;64346;50.820;16.274;2023-04-06T10:02:57;12.10;;;7.95;;
36441;SDS011;64346;50.820;16.274;2023-04-06T10:08:13;13.48;;;8.90;;
36441;SDS011;64346;50.820;16.274;2023-04-06T10:10:41;13.75;;;8.85;;
36441;SDS011;64346;50.820;16.274;2023-04-06T10:13:13;17.02;;;9.35;;
36441;SDS011;64346;50.820;16.274;2023-04-06T10:15:42;15.35;;;8.95;;
36441;SDS011;64346;50.820;16.274;2023-04-06T10:18:11;13.55;;;8.75;;
36441;SDS011;64346;50.820;16.274;2023-04-06T10:20:43;14.27;;;8.80;;
36441;SDS011;64346;50.820;16.274;2023-04-06T10:23:35;15.35;;;8.98;;
36441;SDS011;64346;50.820;16.274;2023-04-06T10:26:12;14.57;;;8.70;;
36441;SDS011;64346;50.820;16.274;2023-04-06T10:28:47;12.40;;;7.80;;
36441;SDS011;64346;50.820;16.274;2023-04-06T10:31:15;15.05;;;9.23;;
36441;SDS011;64346;50.820;16.274;2023-04-06T10:33:57;14.63;;;10.05;;
36441;SDS011;64346;50.820;16.274;2023-04-06T10:36:31;13.57;;;8.48;;
36441;SDS011;64346;50.820;16.274;2023-04-06T10:39:03;14.13;;;8.93;;
36441;SDS011;64346;50.820;16.274;2023-04-06T10:41:32;15.88;;;9.30;;
36441;SDS011;64346;50.820;16.274;2023-04-06T10:44:16;15.30;;;8.98;;
36441;SDS011;64346;50.820;16.274;2023-04-06T10:46:55;20.83;;;12.13;;
36441;SDS011;64346;50.820;16.274;2023-04-06T10:49:24;18.83;;;12.45;;
36441;SDS011;64346;50.820;16.274;2023-04-06T10:51:53;14.55;;;10.27;;
36441;SDS011;64346;50.820;16.274;2023-04-06T10:54:24;14.23;;;10.00;;
36441;SDS011;64346;50.820;16.274;2023-04-06T10:56:52;23.58;;;16.52;;
36441;SDS011;64346;50.820;16.274;2023-04-06T10:59:23;17.73;;;12.48;;
36441;SDS011;64346;50.820;16.274;2023-04-06T11:01:50;17.05;;;11.80;;
36441;SDS011;64346;50.820;16.274;2023-04-06T11:04:18;18.02;;;11.18;;
36441;SDS011;64346;50.820;16.274;2023-04-06T11:06:47;15.57;;;10.55;;
36441;SDS011;64346;50.820;16.274;2023-04-06T11:09:30;16.65;;;11.90;;
36441;SDS011;64346;50.820;16.274;2023-04-06T11:11:57;17.17;;;11.35;;
36441;SDS011;64346;50.820;16.274;2023-04-06T11:14:27;19.38;;;11.90;;
36441;SDS011;64346;50.820;16.274;2023-04-06T11:16:54;16.67;;;11.65;;
36441;SDS011;64346;50.820;16.274;2023-04-06T11:19:22;15.43;;;10.50;;
36441;SDS011;64346;50.820;16.274;2023-04-06T11:21:50;17.13;;;11.25;;
36441;SDS011;64346;50.820;16.274;2023-04-06T11:26:58;17.67;;;11.82;;
36441;SDS011;64346;50.820;16.274;2023-04-06T11:29:27;17.95;;;11.75;;
36441;SDS011;64346;50.820;16.274;2023-04-06T11:32:01;17.88;;;11.15;;
36441;SDS011;64346;50.820;16.274;2023-04-06T11:34:36;17.83;;;11.27;;
36441;SDS011;64346;50.820;16.274;2023-04-06T11:37:07;18.17;;;11.93;;
36441;SDS011;64346;50.820;16.274;2023-04-06T11:39:38;18.27;;;11.10;;
36441;SDS011;64346;50.820;16.274;2023-04-06T11:42:20;16.77;;;11.52;;
36441;SDS011;64346;50.820;16.274;2023-04-06T11:44:53;16.85;;;11.10;;
36441;SDS011;64346;50.820;16.274;2023-04-06T11:47:27;16.65;;;11.02;;
36441;SDS011;64346;50.820;16.274;2023-04-06T11:50:06;17.45;;;11.55;;
36441;SDS011;64346;50.820;16.274;2023-04-06T11:52:35;17.67;;;12.02;;
36441;SDS011;64346;50.820;16.274;2023-04-06T11:55:12;20.05;;;12.20;;
36441;SDS011;64346;50.820;16.274;2023-04-06T11:57:45;19.92;;;12.23;;
36441;SDS011;64346;50.820;16.274;2023-04-06T12:00:13;20.58;;;12.68;;
36441;SDS011;64346;50.820;16.274;2023-04-06T12:02:44;18.55;;;13.05;;
36441;SDS011;64346;50.820;16.274;2023-04-06T12:05:13;26.60;;;17.27;;
36441;SDS011;64346;50.820;16.274;2023-04-06T12:07:40;19.83;;;13.40;;
36441;SDS011;64346;50.820;16.274;2023-04-06T12:10:12;18.83;;;13.65;;
36441;SDS011;64346;50.820;16.274;2023-04-06T12:12:39;18.15;;;13.10;;
36441;SDS011;64346;50.820;16.274;2023-04-06T12:15:07;19.92;;;13.40;;
36441;SDS011;64346;50.820;16.274;2023-04-06T12:17:37;17.27;;;13.00;;
36441;SDS011;64346;50.820;16.274;2023-04-06T12:20:04;19.42;;;12.65;;
36441;SDS011;64346;50.820;16.274;2023-04-06T12:22:52;20.80;;;12.45;;
36441;SDS011;64346;50.820;16.274;2023-04-06T12:25:20;19.58;;;13.38;;
36441;SDS011;64346;50.820;16.274;2023-04-06T12:27:49;20.70;;;13.57;;
36441;SDS011;64346;50.820;16.274;2023-04-06T12:30:17;22.58;;;13.68;;
36441;SDS011;64346;50.820;16.274;2023-04-06T12:32:44;21.70;;;14.32;;
36441;SDS011;64346;50.820;16.274;2023-04-06T12:35:13;20.35;;;14.07;;
36441;SDS011;64346;50.820;16.274;2023-04-06T12:37:43;21.48;;;13.68;;
36441;SDS011;64346;50.820;16.274;2023-04-06T12:40:10;18.98;;;12.82;;
36441;SDS011;64346;50.820;16.274;2023-04-06T12:42:38;17.58;;;12.63;;
36441;SDS011;64346;50.820;16.274;2023-04-06T12:45:06;19.02;;;12.50;;
36441;SDS011;64346;50.820;16.274;2023-04-06T12:47:34;17.85;;;11.02;;
36441;SDS011;64346;50.820;16.274;2023-04-06T12:50:02;19.25;;;11.57;;
36441;SDS011;64346;50.820;16.274;2023-04-06T12:52:29;19.52;;;11.25;;
36441;SDS011;64346;50.820;16.274;2023-04-06T12:54:56;19.48;;;11.93;;
36441;SDS011;64346;50.820;16.274;2023-04-06T12:57:26;18.42;;;12.15;;
36441;SDS011;64346;50.820;16.274;2023-04-06T12:59:53;19.33;;;11.95;;
36441;SDS011;64346;50.820;16.274;2023-04-06T13:02:21;17.23;;;10.85;;
36441;SDS011;64346;50.820;16.274;2023-04-06T13:04:51;19.80;;;10.73;;
36441;SDS011;64346;50.820;16.274;2023-04-06T13:07:18;19.05;;;11.15;;
36441;SDS011;64346;50.820;16.274;2023-04-06T13:09:45;17.35;;;11.23;;
36441;SDS011;64346;50.820;16.274;2023-04-06T13:12:13;17.13;;;10.98;;
36441;SDS011;64346;50.820;16.274;2023-04-06T13:14:42;19.52;;;12.40;;
36441;SDS011;64346;50.820;16.274;2023-04-06T13:17:09;21.92;;;13.15;;
36441;SDS011;64346;50.820;16.274;2023-04-06T13:19:39;18.90;;;11.48;;
36441;SDS011;64346;50.820;16.274;2023-04-06T13:22:09;20.45;;;12.25;;
36441;SDS011;64346;50.820;16.274;2023-04-06T13:24:38;19.02;;;11.38;;
36441;SDS011;64346;50.820;16.274;2023-04-06T13:27:05;19.67;;;11.43;;
36441;SDS011;64346;50.820;16.274;2023-04-06T13:29:33;20.63;;;11.63;;
36441;SDS011;64346;50.820;16.274;2023-04-06T13:32:02;18.60;;;12.07;;
36441;SDS011;64346;50.820;16.274;2023-04-06T13:34:33;17.35;;;11.05;;
36441;SDS011;64346;50.820;16.274;2023-04-06T13:37:04;23.48;;;14.65;;
36441;SDS011;64346;50.820;16.274;2023-04-06T13:39:32;19.02;;;11.27;;
36441;SDS011;64346;50.820;16.274;2023-04-06T13:41:59;32.97;;;22.15;;
36441;SDS011;64346;50.820;16.274;2023-04-06T13:44:38;17.35;;;11.63;;
36441;SDS011;64346;50.820;16.274;2023-04-06T13:47:05;16.50;;;10.93;;
36441;SDS011;64346;50.820;16.274;2023-04-06T13:49:33;16.55;;;11.20;;
36441;SDS011;64346;50.820;16.274;2023-04-06T13:52:00;18.65;;;10.98;;
36441;SDS011;64346;50.820;16.274;2023-04-06T13:54:27;17.25;;;10.82;;
36441;SDS011;64346;50.820;16.274;2023-04-06T13:57:00;17.50;;;11.52;;
36441;SDS011;64346;50.820;16.274;2023-04-06T13:59:33;19.65;;;11.32;;
36441;SDS011;64346;50.820;16.274;2023-04-06T14:02:01;18.30;;;11.82;;
36441;SDS011;64346;50.820;16.274;2023-04-06T14:04:30;18.10;;;11.18;;
36441;SDS011;64346;50.820;16.274;2023-04-06T14:07:01;17.08;;;11.30;;
36441;SDS011;64346;50.820;16.274;2023-04-06T14:09:36;21.05;;;11.60;;
36441;SDS011;64346;50.820;16.274;2023-04-06T14:12:05;18.52;;;11.38;;
36441;SDS011;64346;50.820;16.274;2023-04-06T14:14:32;18.17;;;11.15;;
36441;SDS011;64346;50.820;16.274;2023-04-06T14:16:59;21.38;;;10.88;;
36441;SDS011;64346;50.820;16.274;2023-04-06T14:19:56;20.02;;;11.05;;
36441;SDS011;64346;50.820;16.274;2023-04-06T14:22:34;16.55;;;9.95;;
36441;SDS011;64346;50.820;16.274;2023-04-06T14:25:04;17.00;;;10.98;;
36441;SDS011;64346;50.820;16.274;2023-04-06T14:27:31;18.05;;;10.65;;
36441;SDS011;64346;50.820;16.274;2023-04-06T14:29:58;17.27;;;10.75;;
36441;SDS011;64346;50.820;16.274;2023-04-06T14:32:25;17.48;;;10.52;;
36441;SDS011;64346;50.820;16.274;2023-04-06T14:34:53;19.20;;;10.45;;
36441;SDS011;64346;50.820;16.274;2023-04-06T14:37:20;21.48;;;11.55;;